Time;durP1;ratioP1;P1;durP2;ratioP2;P2;SDS_P1;SDS_P2;PMS_P1;PMS_P2;Temp;Humidity;BMP_temperature;BMP_pressure;BME280_temperature;BME280_humidity;BME280_pressure;Samples;Min_cycle;Max_cycle;Signal;HPM_P1;HPM_P2
2021/11/30 00:01:46;;;;;;;5.97;4.50;;;5.40;99.90;;;;;;4977995;28;20198;-81
2021/11/30 00:04:14;;;;;;;3.90;2.13;;;5.40;99.90;;;;;;4977914;28;20182;-82
2021/11/30 00:06:40;;;;;;;8.52;3.30;;;5.40;99.90;;;;;;4960809;28;20566;-83
2021/11/30 00:11:54;;;;;;;5.05;2.78;;;5.20;99.90;;;;;;4995182;28;20182;-82
2021/11/30 00:14:20;;;;;;;5.30;3.30;;;5.30;99.90;;;;;;4977164;28;20174;-82
2021/11/30 00:16:46;;;;;;;6.03;3.00;;;5.10;99.90;;;;;;4994232;28;20191;-82
2021/11/30 00:19:11;;;;;;;5.60;3.37;;;5.00;99.90;;;;;;4990792;28;20174;-79
2021/11/30 00:21:37;;;;;;;4.20;3.40;;;5.00;99.90;;;;;;4999968;28;20221;-79
2021/11/30 00:24:12;;;;;;;4.20;3.00;;;5.00;99.90;;;;;;4984587;28;20191;-82
2021/11/30 00:26:37;;;;;;;5.38;3.03;;;5.00;99.90;;;;;;4983259;28;20708;-82
2021/11/30 00:29:03;;;;;;;8.17;3.67;;;5.00;99.90;;;;;;5000333;28;20198;-82
2021/11/30 00:31:29;;;;;;;8.40;3.83;;;4.90;99.90;;;;;;5000525;28;20241;-82
2021/11/30 00:33:55;;;;;;;7.50;4.17;;;4.70;99.90;;;;;;4966371;28;20175;-80
2021/11/30 00:36:21;;;;;;;7.63;3.20;;;4.70;99.90;;;;;;4982004;28;20195;-82
2021/11/30 00:38:47;;;;;;;8.48;4.88;;;4.90;99.90;;;;;;4982728;28;20225;-82
2021/11/30 00:41:12;;;;;;;12.85;4.88;;;4.80;99.90;;;;;;4981978;28;20214;-81
2021/11/30 00:43:39;;;;;;;8.90;3.83;;;5.00;99.90;;;;;;4998915;28;20186;-83
2021/11/30 00:46:17;;;;;;;12.00;5.38;;;4.90;99.90;;;;;;4981125;28;20191;-80
2021/11/30 00:48:43;;;;;;;12.38;4.75;;;4.90;99.90;;;;;;4981852;28;20210;-81
2021/11/30 00:51:17;;;;;;;7.20;3.53;;;5.10;99.90;;;;;;4981846;28;20678;-82
2021/11/30 00:53:45;;;;;;;9.90;4.63;;;5.10;99.90;;;;;;4981834;28;20410;-83
2021/11/30 00:56:11;;;;;;;7.15;4.25;;;5.10;99.90;;;;;;4982207;28;20195;-82
2021/11/30 00:58:38;;;;;;;7.78;4.15;;;5.10;99.90;;;;;;4983078;28;20190;-81
2021/11/30 01:01:04;;;;;;;6.38;4.22;;;5.10;99.90;;;;;;4980973;28;20645;-82
2021/11/30 01:03:30;;;;;;;6.20;3.90;;;5.20;99.90;;;;;;4964678;28;20186;-82
2021/11/30 01:05:58;;;;;;;6.03;3.97;;;5.20;99.90;;;;;;4981537;28;20202;-82
2021/11/30 01:08:24;;;;;;;9.07;4.82;;;5.20;99.90;;;;;;4998457;28;20373;-81
2021/11/30 01:10:50;;;;;;;8.47;4.90;;;5.10;99.90;;;;;;4980211;28;20207;-82
2021/11/30 01:13:16;;;;;;;8.98;4.78;;;4.90;99.90;;;;;;5007467;28;20400;-79
2021/11/30 01:15:44;;;;;;;6.82;4.45;;;4.80;99.90;;;;;;5018061;28;20191;-80
2021/11/30 01:18:10;;;;;;;7.35;4.75;;;4.90;99.90;;;;;;4967223;28;20268;-80
2021/11/30 01:20:36;;;;;;;11.27;5.55;;;4.80;99.90;;;;;;4998404;28;20194;-82
2021/11/30 01:23:02;;;;;;;10.55;4.43;;;4.70;99.90;;;;;;4981066;28;20222;-82
2021/11/30 01:25:28;;;;;;;7.30;4.70;;;4.70;99.90;;;;;;4965023;28;20222;-82
2021/11/30 01:27:54;;;;;;;7.87;4.10;;;4.50;99.90;;;;;;4998607;28;20256;-81
2021/11/30 01:30:20;;;;;;;13.60;5.83;;;4.50;99.90;;;;;;4950216;28;20222;-82
2021/11/30 01:32:47;;;;;;;14.73;6.35;;;4.50;99.90;;;;;;4999851;28;20234;-82
2021/11/30 01:35:14;;;;;;;9.63;4.00;;;4.50;99.90;;;;;;4984381;28;20191;-78
2021/11/30 01:37:40;;;;;;;7.30;4.78;;;4.60;99.90;;;;;;4998148;28;20171;-82
2021/11/30 01:40:11;;;;;;;6.13;4.25;;;4.60;99.90;;;;;;5009369;28;20158;-79
2021/11/30 01:42:42;;;;;;;11.30;6.18;;;4.50;99.90;;;;;;5001073;28;20155;-81
2021/11/30 01:45:11;;;;;;;9.23;5.50;;;4.40;99.90;;;;;;4999030;28;20199;-79
2021/11/30 01:47:53;;;;;;;10.98;5.10;;;4.30;99.90;;;;;;4997681;28;20190;-80
2021/11/30 01:50:19;;;;;;;7.65;3.15;;;4.40;99.90;;;;;;4985107;28;20195;-80
2021/11/30 01:52:48;;;;;;;10.05;5.20;;;4.50;99.90;;;;;;4980314;28;20182;-81
2021/11/30 01:55:14;;;;;;;8.50;4.20;;;4.50;99.90;;;;;;4979614;28;20674;-81
2021/11/30 01:57:40;;;;;;;8.05;5.25;;;4.50;99.90;;;;;;4979441;28;20265;-82
2021/11/30 02:00:07;;;;;;;11.40;5.50;;;4.40;99.90;;;;;;4997469;28;20209;-82
2021/11/30 02:02:33;;;;;;;6.95;4.43;;;4.30;99.90;;;;;;4979803;28;20642;-81
2021/11/30 02:04:59;;;;;;;10.88;4.50;;;4.30;99.90;;;;;;4978939;28;20233;-81
2021/11/30 02:07:25;;;;;;;10.87;5.27;;;4.30;99.90;;;;;;4963228;28;20535;-80
2021/11/30 02:09:51;;;;;;;11.37;4.73;;;4.40;99.90;;;;;;4962689;28;20201;-80
2021/11/30 02:12:16;;;;;;;12.87;6.33;;;4.40;99.90;;;;;;4962610;28;21010;-81
2021/11/30 02:14:45;;;;;;;11.97;4.77;;;4.30;99.90;;;;;;4962919;28;20183;-81
2021/11/30 02:17:13;;;;;;;9.13;4.75;;;4.20;99.90;;;;;;4979217;28;20410;-81
2021/11/30 02:19:46;;;;;;;13.02;5.32;;;4.10;99.90;;;;;;4965872;28;20270;-81
2021/11/30 02:22:14;;;;;;;9.02;5.30;;;4.30;99.90;;;;;;5002789;28;20805;-82
2021/11/30 02:24:40;;;;;;;6.65;4.07;;;4.20;99.90;;;;;;4997398;28;20167;-83
2021/11/30 02:27:06;;;;;;;10.38;5.57;;;4.30;99.90;;;;;;4997196;28;20164;-82
2021/11/30 02:29:32;;;;;;;8.93;4.80;;;4.10;99.90;;;;;;4997566;28;20201;-82
2021/11/30 02:31:58;;;;;;;7.63;4.60;;;4.20;99.90;;;;;;4979569;28;20556;-81
2021/11/30 02:34:23;;;;;;;10.43;6.00;;;4.20;99.90;;;;;;4963648;28;20175;-81
2021/11/30 02:36:52;;;;;;;14.00;6.17;;;4.30;99.90;;;;;;4963562;28;20682;-81
2021/11/30 02:39:21;;;;;;;8.77;5.63;;;4.50;99.90;;;;;;4979815;28;20421;-81
2021/11/30 02:41:48;;;;;;;11.25;5.53;;;4.70;99.90;;;;;;4980314;28;20174;-81
2021/11/30 02:44:17;;;;;;;11.35;5.90;;;4.90;99.90;;;;;;4997889;28;20666;-81
2021/11/30 02:46:54;;;;;;;12.20;7.55;;;5.00;99.90;;;;;;4963601;28;20221;-82
2021/11/30 02:49:26;;;;;;;17.00;6.30;;;5.10;99.90;;;;;;4979488;28;20171;-82
2021/11/30 02:52:02;;;;;;;8.10;4.72;;;4.90;99.90;;;;;;4980178;28;20214;-83
2021/11/30 02:54:27;;;;;;;13.40;7.82;;;4.90;99.90;;;;;;4996677;28;20163;-81
2021/11/30 02:56:56;;;;;;;13.40;6.20;;;4.90;99.90;;;;;;4996790;28;20619;-82
2021/11/30 02:59:27;;;;;;;10.30;5.10;;;5.00;99.90;;;;;;4996086;28;20580;-82
2021/11/30 03:02:10;;;;;;;12.63;6.82;;;4.70;99.90;;;;;;4996713;28;20210;-82
2021/11/30 03:04:36;;;;;;;13.05;7.15;;;4.70;99.90;;;;;;4997378;28;20171;-81
2021/11/30 03:07:03;;;;;;;13.37;7.70;;;4.80;99.90;;;;;;4979787;28;20186;-81
2021/11/30 03:09:28;;;;;;;11.35;6.78;;;4.90;99.90;;;;;;4981721;28;20433;-82
2021/11/30 03:11:55;;;;;;;13.37;6.93;;;5.00;99.90;;;;;;4997877;28;20199;-81
2021/11/30 03:14:22;;;;;;;13.77;7.07;;;5.00;99.90;;;;;;4963787;28;20210;-81
2021/11/30 03:16:48;;;;;;;16.13;8.18;;;4.90;99.90;;;;;;4980336;28;20205;-82
2021/11/30 03:19:15;;;;;;;9.15;6.05;;;4.70;99.90;;;;;;4980557;28;20174;-82
2021/11/30 03:21:42;;;;;;;10.60;6.80;;;4.80;99.90;;;;;;4980192;28;20266;-81
2021/11/30 03:24:08;;;;;;;17.40;8.05;;;4.70;99.90;;;;;;4996805;28;20214;-81
2021/11/30 03:26:34;;;;;;;13.30;7.30;;;4.90;99.90;;;;;;4996999;28;20507;-82
2021/11/30 03:28:59;;;;;;;11.60;6.27;;;4.90;99.90;;;;;;4980165;28;20190;-81
2021/11/30 03:34:09;;;;;;;14.80;8.10;;;5.00;99.90;;;;;;4996942;28;20503;-82
2021/11/30 03:36:37;;;;;;;16.50;8.25;;;5.10;99.90;;;;;;4980093;28;20191;-82
2021/11/30 03:39:06;;;;;;;12.13;8.13;;;4.90;99.90;;;;;;5011413;28;20170;-83
2021/11/30 03:41:33;;;;;;;19.10;6.68;;;5.00;99.90;;;;;;5024929;28;20241;-81
2021/11/30 03:44:01;;;;;;;14.20;7.15;;;4.90;99.90;;;;;;5006347;28;20178;-80
2021/11/30 03:46:27;;;;;;;12.63;6.70;;;4.90;99.90;;;;;;4991458;28;20249;-82
2021/11/30 03:48:53;;;;;;;14.57;6.63;;;5.00;99.90;;;;;;4988991;28;20179;-82
2021/11/30 03:51:20;;;;;;;13.15;7.80;;;5.00;99.90;;;;;;4985757;28;20830;-82
2021/11/30 03:53:45;;;;;;;12.40;6.90;;;5.00;99.90;;;;;;5019524;28;20187;-83
2021/11/30 03:56:11;;;;;;;18.97;7.30;;;5.10;99.90;;;;;;4995399;28;20213;-83
2021/11/30 03:58:37;;;;;;;11.87;6.57;;;5.10;99.90;;;;;;5007047;28;20441;-82
2021/11/30 04:01:03;;;;;;;15.63;8.00;;;5.10;99.90;;;;;;4998223;28;20186;-83
2021/11/30 04:03:32;;;;;;;14.40;7.27;;;5.10;99.90;;;;;;4976596;28;20194;-81
2021/11/30 04:05:58;;;;;;;10.13;5.78;;;5.10;99.90;;;;;;4993139;28;20453;-83
2021/11/30 04:08:24;;;;;;;16.37;8.10;;;5.00;99.90;;;;;;4993954;28;20179;-83
2021/11/30 04:10:49;;;;;;;11.50;7.43;;;5.10;99.90;;;;;;4994906;28;20265;-83
2021/11/30 04:13:15;;;;;;;12.77;7.20;;;5.10;99.90;;;;;;4982919;28;20179;-82
2021/11/30 04:15:41;;;;;;;12.50;6.80;;;5.10;99.90;;;;;;4992229;28;20194;-83
2021/11/30 04:18:06;;;;;;;19.00;7.37;;;5.10;99.90;;;;;;5005403;28;20224;-82
2021/11/30 04:20:32;;;;;;;15.20;6.70;;;5.20;99.90;;;;;;5009732;28;20174;-82
2021/11/30 04:22:58;;;;;;;11.43;6.90;;;5.20;99.90;;;;;;4992467;28;20178;-83
2021/11/30 04:25:24;;;;;;;12.47;6.97;;;5.20;99.90;;;;;;4993708;28;20209;-83
2021/11/30 04:27:49;;;;;;;14.50;5.17;;;5.20;99.90;;;;;;5009769;28;20443;-83
2021/11/30 04:30:15;;;;;;;12.20;5.80;;;4.90;99.90;;;;;;4993608;28;20206;-83
2021/11/30 04:32:41;;;;;;;14.57;6.93;;;4.90;99.90;;;;;;5028065;28;20201;-81
2021/11/30 04:35:08;;;;;;;12.57;6.20;;;4.90;99.90;;;;;;5009894;28;20459;-82
2021/11/30 04:37:35;;;;;;;12.10;6.03;;;5.00;99.90;;;;;;5011163;28;20399;-83
2021/11/30 04:40:00;;;;;;;10.63;6.75;;;5.00;99.90;;;;;;5010774;28;20252;-82
2021/11/30 04:42:27;;;;;;;10.77;6.20;;;4.90;99.90;;;;;;4995648;28;20194;-83
2021/11/30 04:45:47;;;;;;;11.80;5.35;;;4.90;99.90;;;;;;5011671;28;20201;-83
2021/11/30 04:47:43;;;;;;;13.60;7.60;;;4.90;99.90;;;;;;5017607;28;20185;-82
2021/11/30 04:50:17;;;;;;;10.90;5.05;;;5.00;99.90;;;;;;4994818;28;20194;-81
2021/11/30 04:52:45;;;;;;;10.07;5.50;;;5.00;99.90;;;;;;4994884;28;20178;-83
2021/11/30 04:55:10;;;;;;;11.05;5.13;;;5.00;99.90;;;;;;4994850;28;20194;-83
2021/11/30 04:57:36;;;;;;;8.40;5.23;;;5.00;99.90;;;;;;4993490;28;20181;-81
2021/11/30 05:00:04;;;;;;;7.93;5.10;;;4.90;99.90;;;;;;5027775;28;20209;-82
2021/11/30 05:02:29;;;;;;;11.48;6.03;;;4.90;99.90;;;;;;5011644;28;20170;-82
2021/11/30 05:04:55;;;;;;;10.90;5.80;;;4.80;99.90;;;;;;5009891;28;20208;-82
2021/11/30 05:07:21;;;;;;;13.27;6.30;;;4.80;99.90;;;;;;4993440;28;20289;-82
2021/11/30 05:09:47;;;;;;;12.77;7.00;;;4.80;99.90;;;;;;5008796;28;20419;-83
2021/11/30 05:12:13;;;;;;;13.73;7.32;;;4.80;99.90;;;;;;5009251;28;20599;-84
2021/11/30 05:14:39;;;;;;;11.90;6.47;;;4.90;99.90;;;;;;5009054;28;20178;-82
2021/11/30 05:17:05;;;;;;;10.32;5.00;;;4.70;99.90;;;;;;4992867;28;20236;-81
2021/11/30 05:19:31;;;;;;;12.90;6.30;;;4.70;99.90;;;;;;4993126;28;20182;-84
2021/11/30 05:21:56;;;;;;;11.03;5.67;;;4.50;99.90;;;;;;5009497;28;20182;-82
2021/11/30 05:24:22;;;;;;;19.93;4.90;;;4.30;99.90;;;;;;5011362;28;20421;-84
2021/11/30 05:26:49;;;;;;;8.10;4.90;;;4.30;99.90;;;;;;4992755;28;20232;-81
2021/11/30 05:29:15;;;;;;;11.05;5.55;;;4.30;99.90;;;;;;5027418;28;20209;-81
2021/11/30 05:31:41;;;;;;;8.95;4.65;;;4.50;99.90;;;;;;4992475;28;20206;-82
2021/11/30 05:34:07;;;;;;;10.05;5.78;;;4.50;99.90;;;;;;5025771;28;20167;-81
2021/11/30 05:36:33;;;;;;;11.80;4.63;;;4.50;99.90;;;;;;5008914;28;20187;-81
2021/11/30 05:39:00;;;;;;;8.23;4.35;;;4.60;99.90;;;;;;5008493;28;20415;-83
2021/11/30 05:41:26;;;;;;;9.05;4.70;;;4.60;99.90;;;;;;5025649;28;20170;-82
2021/11/30 05:43:52;;;;;;;5.95;3.35;;;4.70;99.90;;;;;;5007279;28;20263;-81
2021/11/30 05:46:19;;;;;;;8.90;4.25;;;4.60;99.90;;;;;;5006064;28;20194;-82
2021/11/30 05:48:45;;;;;;;8.55;4.90;;;4.70;99.90;;;;;;5005917;28;20192;-82
2021/11/30 05:51:11;;;;;;;10.07;5.00;;;4.60;99.90;;;;;;5006652;28;20288;-81
2021/11/30 05:53:37;;;;;;;9.73;4.53;;;4.60;99.90;;;;;;5009345;28;20174;-80
2021/11/30 05:56:05;;;;;;;5.60;4.35;;;4.70;99.90;;;;;;5009755;28;20282;-80
2021/11/30 05:58:34;;;;;;;8.10;4.63;;;4.70;99.90;;;;;;5015604;28;20185;-81
2021/11/30 06:01:07;;;;;;;9.65;4.13;;;4.60;99.90;;;;;;5005369;28;20183;-81
2021/11/30 06:03:45;;;;;;;9.88;5.90;;;4.60;99.90;;;;;;4983302;28;20636;-79
2021/11/30 06:06:10;;;;;;;9.52;4.50;;;4.50;99.90;;;;;;5023514;28;20286;-82
2021/11/30 06:08:36;;;;;;;10.77;5.57;;;4.60;99.90;;;;;;5020831;28;20217;-82
2021/11/30 06:11:02;;;;;;;8.90;5.53;;;4.60;99.90;;;;;;4990666;28;20202;-80
2021/11/30 06:13:28;;;;;;;7.63;3.63;;;4.60;99.90;;;;;;5016983;28;20198;-83
2021/11/30 06:15:53;;;;;;;7.57;4.03;;;4.60;99.90;;;;;;4972250;28;20198;-82
2021/11/30 06:18:19;;;;;;;10.93;4.70;;;4.50;99.90;;;;;;4974421;28;20692;-83
2021/11/30 06:20:47;;;;;;;5.97;3.30;;;4.60;99.90;;;;;;5006055;28;20190;-79
2021/11/30 06:23:12;;;;;;;7.30;4.22;;;4.60;99.90;;;;;;5020070;28;20555;-81
2021/11/30 06:25:38;;;;;;;7.90;4.37;;;4.70;99.90;;;;;;4970452;28;20222;-83
2021/11/30 06:28:04;;;;;;;3.90;3.23;;;4.70;99.90;;;;;;4983417;28;20541;-82
2021/11/30 06:30:29;;;;;;;6.30;3.90;;;4.40;99.90;;;;;;4966193;28;20234;-83
2021/11/30 06:32:55;;;;;;;8.10;3.70;;;4.50;99.90;;;;;;4999999;28;20528;-81
2021/11/30 06:35:21;;;;;;;8.53;4.90;;;4.50;99.90;;;;;;5002217;28;20194;-84
2021/11/30 06:37:46;;;;;;;7.17;3.60;;;4.60;99.90;;;;;;5018935;28;20206;-83
2021/11/30 06:40:12;;;;;;;7.33;4.07;;;4.60;99.90;;;;;;4983504;28;20426;-82
2021/11/30 06:42:39;;;;;;;9.05;5.18;;;4.70;99.90;;;;;;4992374;28;20173;-83
2021/11/30 06:45:05;;;;;;;10.25;4.53;;;4.70;99.90;;;;;;5001582;28;20213;-82
2021/11/30 06:47:31;;;;;;;10.48;5.93;;;4.70;99.90;;;;;;4992883;28;20704;-82
2021/11/30 06:49:56;;;;;;;5.27;3.43;;;4.70;99.90;;;;;;4968729;28;20185;-82
2021/11/30 06:52:22;;;;;;;5.43;3.50;;;4.70;99.90;;;;;;4986851;28;20429;-82
2021/11/30 06:54:51;;;;;;;5.97;4.27;;;4.40;99.90;;;;;;4998541;28;20804;-80
2021/11/30 06:57:17;;;;;;;7.13;3.97;;;4.40;99.90;;;;;;5013781;28;20179;-83
2021/11/30 06:59:43;;;;;;;8.80;4.50;;;4.50;99.90;;;;;;4997998;28;20225;-80
2021/11/30 07:02:10;;;;;;;6.50;4.00;;;4.70;99.90;;;;;;5009930;28;20514;-80
2021/11/30 07:04:40;;;;;;;7.38;4.53;;;4.80;99.90;;;;;;5018061;28;20178;-79
2021/11/30 07:15:04;;;;;;;7.90;4.25;;;4.60;99.90;;;;;;4997814;28;20630;-82
2021/11/30 07:17:31;;;;;;;7.65;3.65;;;4.70;99.90;;;;;;5007706;28;20628;-82
2021/11/30 07:19:58;;;;;;;5.88;3.15;;;5.50;99.90;;;;;;4983235;28;20189;-82
2021/11/30 07:22:23;;;;;;;6.97;4.28;;;5.60;99.90;;;;;;4987955;28;20166;-80
2021/11/30 07:24:49;;;;;;;7.33;3.23;;;5.70;99.90;;;;;;4991197;28;20639;-82
2021/11/30 07:27:15;;;;;;;8.77;5.30;;;5.90;99.90;;;;;;5010697;28;20170;-80
2021/11/30 07:29:41;;;;;;;5.22;3.22;;;5.80;99.90;;;;;;5036344;28;20178;-79
2021/11/30 07:32:08;;;;;;;7.00;3.60;;;5.80;99.90;;;;;;5010577;28;21584;-83
2021/11/30 07:34:34;;;;;;;5.57;4.00;;;5.80;99.90;;;;;;4986773;28;20174;-80
2021/11/30 07:36:59;;;;;;;6.70;3.53;;;5.70;99.90;;;;;;4990747;28;20178;-80
2021/11/30 07:39:25;;;;;;;6.37;3.40;;;5.00;99.90;;;;;;4992952;28;20178;-83
2021/11/30 07:41:51;;;;;;;7.63;3.70;;;5.10;99.90;;;;;;5000643;28;20174;-83
2021/11/30 07:44:16;;;;;;;9.10;4.37;;;5.40;99.90;;;;;;4972059;28;20194;-83
2021/11/30 07:46:42;;;;;;;7.27;4.37;;;5.40;99.90;;;;;;4998394;28;20670;-84
2021/11/30 07:49:08;;;;;;;4.70;3.80;;;5.10;99.90;;;;;;4989742;28;20202;-82
2021/11/30 07:51:34;;;;;;;5.90;3.13;;;5.00;99.90;;;;;;4998880;28;20432;-83
2021/11/30 07:54:00;;;;;;;9.70;5.30;;;5.20;99.90;;;;;;4994975;28;20178;-83
2021/11/30 07:56:26;;;;;;;5.75;4.00;;;5.10;99.90;;;;;;4989749;28;20669;-83
2021/11/30 07:58:52;;;;;;;5.28;3.33;;;5.10;99.90;;;;;;4996381;28;20224;-81
2021/11/30 08:01:18;;;;;;;5.80;4.03;;;5.00;99.90;;;;;;4972166;28;20184;-83
2021/11/30 08:03:44;;;;;;;5.93;4.00;;;4.50;99.90;;;;;;4991492;28;20170;-82
2021/11/30 08:06:11;;;;;;;10.05;4.70;;;4.20;99.90;;;;;;4985838;28;20677;-82
2021/11/30 08:08:37;;;;;;;9.10;4.93;;;4.40;99.90;;;;;;4997353;28;20642;-83
2021/11/30 08:11:06;;;;;;;8.50;4.70;;;4.60;99.90;;;;;;4991483;28;20213;-82
2021/11/30 08:13:32;;;;;;;4.90;3.80;;;4.40;99.90;;;;;;4989247;28;20437;-82
2021/11/30 08:15:57;;;;;;;6.90;4.87;;;4.50;99.90;;;;;;5016627;28;20225;-83
2021/11/30 08:18:23;;;;;;;8.67;4.53;;;4.50;99.90;;;;;;4980726;28;20175;-84
2021/11/30 08:20:49;;;;;;;3.70;2.90;;;4.30;99.90;;;;;;4999292;28;20545;-83
2021/11/30 08:23:15;;;;;;;7.50;5.50;;;4.20;99.90;;;;;;4993486;28;20261;-83
2021/11/30 08:25:41;;;;;;;5.10;3.60;;;4.10;99.90;;;;;;5000091;28;20205;-83
2021/11/30 08:28:08;;;;;;;4.88;3.50;;;4.10;99.90;;;;;;4982167;28;20446;-84
2021/11/30 08:30:34;;;;;;;8.50;3.80;;;3.90;99.90;;;;;;4980029;28;20226;-84
2021/11/30 08:33:00;;;;;;;5.05;3.95;;;3.90;99.90;;;;;;4980517;28;20202;-84
2021/11/30 08:35:26;;;;;;;8.17;4.03;;;4.10;99.90;;;;;;4966313;28;20301;-84
2021/11/30 08:37:52;;;;;;;4.00;3.30;;;4.00;99.90;;;;;;4983586;28;20500;-84
2021/11/30 08:40:17;;;;;;;6.75;4.60;;;3.90;99.90;;;;;;4998099;28;20420;-83
2021/11/30 08:42:43;;;;;;;4.27;2.67;;;4.00;99.90;;;;;;4989991;28;20174;-83
2021/11/30 08:45:10;;;;;;;4.10;3.67;;;4.00;99.90;;;;;;5002958;28;20481;-83
2021/11/30 08:47:44;;;;;;;6.35;3.50;;;3.80;99.90;;;;;;5018154;28;20904;-83
2021/11/30 08:50:14;;;;;;;5.30;3.70;;;3.80;99.90;;;;;;4984624;28;20214;-83
2021/11/30 08:52:41;;;;;;;3.53;2.30;;;3.90;99.90;;;;;;5018410;28;20177;-84
2021/11/30 08:55:07;;;;;;;5.13;3.50;;;3.90;99.90;;;;;;4986187;28;20190;-83
2021/11/30 08:57:33;;;;;;;3.75;2.83;;;4.00;99.90;;;;;;4985380;28;20171;-83
2021/11/30 08:59:59;;;;;;;6.97;3.30;;;4.10;99.90;;;;;;4984216;28;20186;-80
2021/11/30 09:02:25;;;;;;;3.50;3.20;;;4.10;99.90;;;;;;4969304;28;20438;-84
2021/11/30 09:04:51;;;;;;;5.28;3.55;;;3.90;99.90;;;;;;4985959;28;20416;-84
2021/11/30 09:07:18;;;;;;;4.60;2.97;;;3.90;99.90;;;;;;4976011;28;20189;-84
2021/11/30 09:09:47;;;;;;;3.33;2.50;;;3.80;99.90;;;;;;5002266;28;20206;-82
2021/11/30 09:12:15;;;;;;;3.88;3.13;;;3.80;99.90;;;;;;5011332;28;20195;-83
2021/11/30 09:14:40;;;;;;;6.68;2.88;;;3.80;99.90;;;;;;4982284;28;20182;-85
2021/11/30 09:17:07;;;;;;;4.00;3.60;;;3.70;99.90;;;;;;4982893;28;20175;-82
2021/11/30 09:19:33;;;;;;;5.57;3.30;;;3.70;99.90;;;;;;4984727;28;20437;-84
2021/11/30 09:21:59;;;;;;;2.78;2.20;;;3.70;99.90;;;;;;4999203;28;20187;-83
2021/11/30 09:24:25;;;;;;;4.70;3.17;;;3.70;99.90;;;;;;4998943;28;20526;-84
2021/11/30 09:26:52;;;;;;;3.00;2.75;;;3.70;99.90;;;;;;4985436;28;20225;-83
2021/11/30 09:29:18;;;;;;;4.28;3.13;;;3.80;99.90;;;;;;5004011;28;20174;-84
2021/11/30 09:31:44;;;;;;;3.38;2.78;;;3.80;99.90;;;;;;5008866;28;20345;-82
2021/11/30 09:34:10;;;;;;;3.33;2.38;;;3.80;99.90;;;;;;4994807;28;20186;-83
2021/11/30 09:36:37;;;;;;;3.55;2.28;;;3.90;99.90;;;;;;4989340;28;20281;-81
2021/11/30 09:39:06;;;;;;;3.75;2.30;;;3.90;99.90;;;;;;5000162;28;20179;-83
2021/11/30 09:41:33;;;;;;;3.72;2.47;;;3.80;99.90;;;;;;5018638;28;20178;-83
2021/11/30 09:43:59;;;;;;;3.47;2.60;;;3.80;99.90;;;;;;4992750;28;20179;-84
2021/11/30 09:46:25;;;;;;;4.30;2.40;;;3.80;99.90;;;;;;5000270;28;20760;-83
2021/11/30 09:48:51;;;;;;;3.38;2.53;;;3.70;99.90;;;;;;4983354;28;20438;-83
2021/11/30 09:51:17;;;;;;;2.60;2.05;;;3.80;99.90;;;;;;4987073;28;20197;-87
2021/11/30 09:53:43;;;;;;;2.40;2.20;;;3.80;99.90;;;;;;5017463;28;20186;-83
2021/11/30 09:56:10;;;;;;;3.38;2.50;;;3.80;99.90;;;;;;5022913;28;20696;-81
2021/11/30 09:58:36;;;;;;;2.28;2.08;;;3.90;99.90;;;;;;5010171;28;20605;-85
2021/11/30 10:01:04;;;;;;;3.33;2.80;;;3.90;99.90;;;;;;4988977;28;20174;-85
2021/11/30 10:03:30;;;;;;;2.60;1.98;;;4.00;99.90;;;;;;4988683;28;20445;-85
2021/11/30 10:05:56;;;;;;;3.33;2.17;;;4.00;99.90;;;;;;5001888;28;20198;-84
2021/11/30 10:08:27;;;;;;;2.50;2.25;;;4.00;99.90;;;;;;4997989;28;20201;-79
2021/11/30 10:10:53;;;;;;;4.65;2.42;;;4.00;99.90;;;;;;4995698;28;20210;-83
2021/11/30 10:13:19;;;;;;;2.27;2.07;;;4.10;99.90;;;;;;4985354;28;20179;-84
2021/11/30 10:15:45;;;;;;;2.35;2.15;;;4.10;99.90;;;;;;4976312;28;20218;-83
2021/11/30 10:18:43;;;;;;;2.73;2.53;;;4.20;99.90;;;;;;4996298;28;20241;-84
2021/11/30 10:21:08;;;;;;;3.67;1.95;;;4.20;99.90;;;;;;4981636;28;20691;-84
2021/11/30 10:24:06;;;;;;;3.87;2.77;;;4.20;99.90;;;;;;5007437;28;20257;-85
2021/11/30 10:26:39;;;;;;;3.47;2.50;;;4.20;99.90;;;;;;4980017;28;20215;-86
2021/11/30 10:29:11;;;;;;;3.42;2.28;;;4.20;99.90;;;;;;4992685;28;20646;-84
2021/11/30 10:31:41;;;;;;;3.17;2.10;;;4.20;99.90;;;;;;4972334;28;20207;-85
2021/11/30 10:34:19;;;;;;;3.22;2.42;;;4.30;99.90;;;;;;4995555;28;20665;-86
2021/11/30 10:37:15;;;;;;;2.63;2.42;;;4.40;99.90;;;;;;4997986;28;20261;-86
2021/11/30 10:39:43;;;;;;;2.65;2.25;;;4.40;99.90;;;;;;4992296;28;20212;-83
2021/11/30 10:42:23;;;;;;;2.50;2.25;;;4.40;99.90;;;;;;5010886;28;20237;-84
2021/11/30 10:44:52;;;;;;;1.70;1.60;;;4.50;99.90;;;;;;4991160;28;20186;-84
2021/11/30 10:47:21;;;;;;;1.80;1.70;;;4.60;99.90;;;;;;4977791;28;20206;-83
2021/11/30 10:50:09;;;;;;;2.88;1.75;;;4.60;99.90;;;;;;4988897;28;20669;-85
2021/11/30 10:52:35;;;;;;;2.03;1.42;;;4.70;99.90;;;;;;4995212;28;20174;-84
2021/11/30 10:55:10;;;;;;;3.53;2.38;;;4.70;99.90;;;;;;4990774;28;20669;-84
2021/11/30 10:57:37;;;;;;;1.83;1.65;;;4.80;99.90;;;;;;4974720;28;20174;-82
2021/11/30 11:00:15;;;;;;;2.88;2.30;;;4.90;99.90;;;;;;4990056;28;20185;-82
2021/11/30 11:02:49;;;;;;;1.92;1.83;;;4.90;99.90;;;;;;5007579;28;20531;-82
2021/11/30 11:05:25;;;;;;;3.42;2.50;;;5.00;99.90;;;;;;4992220;28;20251;-84
2021/11/30 11:08:10;;;;;;;2.58;2.28;;;5.00;99.90;;;;;;5012384;28;20177;-84
2021/11/30 11:10:38;;;;;;;2.55;1.98;;;5.00;99.90;;;;;;4997951;28;20314;-83
2021/11/30 11:13:31;;;;;;;2.70;2.33;;;5.10;99.90;;;;;;4990472;28;20178;-85
2021/11/30 11:15:59;;;;;;;2.30;1.80;;;5.20;99.90;;;;;;5008683;28;20226;-83
2021/11/30 11:18:34;;;;;;;1.70;1.60;;;5.20;99.90;;;;;;4989969;28;20186;-85
2021/11/30 11:21:15;;;;;;;2.00;1.88;;;5.20;99.90;;;;;;4986692;28;20275;-83
2021/11/30 11:24:09;;;;;;;1.88;1.77;;;5.30;99.90;;;;;;4990580;28;20179;-84
2021/11/30 11:26:41;;;;;;;1.83;1.70;;;5.30;99.90;;;;;;5010430;28;20220;-84
2021/11/30 11:29:11;;;;;;;2.08;1.40;;;5.40;99.90;;;;;;5004444;28;20182;-86
2021/11/30 11:31:39;;;;;;;2.05;1.77;;;5.40;99.90;;;;;;4986008;28;20541;-83
2021/11/30 11:34:07;;;;;;;2.60;1.70;;;5.40;99.90;;;;;;5001584;28;20181;-85
2021/11/30 11:36:33;;;;;;;1.85;1.58;;;5.40;99.90;;;;;;4989371;28;20212;-84
2021/11/30 11:38:59;;;;;;;1.30;1.20;;;5.50;99.90;;;;;;4973490;28;20174;-84
2021/11/30 11:41:25;;;;;;;8.13;2.22;;;5.40;99.90;;;;;;4990879;28;20166;-84
2021/11/30 11:43:52;;;;;;;6.05;1.80;;;5.50;99.90;;;;;;5001201;28;20206;-83
2021/11/30 11:46:19;;;;;;;1.33;1.23;;;5.50;99.90;;;;;;4990828;28;20221;-82
2021/11/30 11:48:47;;;;;;;2.40;1.50;;;5.50;99.90;;;;;;5007825;28;20807;-84
2021/11/30 11:51:42;;;;;;;3.22;1.77;;;5.50;99.90;;;;;;4988464;28;20206;-84
2021/11/30 11:54:19;;;;;;;3.83;1.27;;;5.60;99.90;;;;;;4996847;28;20228;-82
2021/11/30 11:56:58;;;;;;;1.67;1.40;;;5.70;99.90;;;;;;4992749;28;20209;-84
2021/11/30 11:59:28;;;;;;;3.42;1.35;;;5.70;99.90;;;;;;5009383;28;20205;-83
2021/11/30 12:02:27;;;;;;;3.95;2.00;;;5.70;99.90;;;;;;4986375;28;20202;-84
2021/11/30 12:04:58;;;;;;;1.20;1.10;;;5.70;99.90;;;;;;4992230;28;20190;-85
2021/11/30 12:07:48;;;;;;;2.20;2.00;;;5.80;99.90;;;;;;4985492;28;20654;-82
2021/11/30 12:10:20;;;;;;;2.10;1.90;;;5.90;99.90;;;;;;4990092;28;20308;-85
2021/11/30 12:13:00;;;;;;;1.40;1.10;;;5.90;99.90;;;;;;4971493;28;20179;-85
2021/11/30 12:15:53;;;;;;;1.25;1.15;;;5.90;99.90;;;;;;4987160;28;20196;-85
2021/11/30 12:18:27;;;;;;;1.67;1.23;;;5.90;99.90;;;;;;4976153;28;20191;-85
2021/11/30 12:21:14;;;;;;;2.20;1.58;;;6.00;99.90;;;;;;5005802;28;20177;-85
2021/11/30 12:23:42;;;;;;;3.15;2.00;;;5.90;99.90;;;;;;5008719;28;20170;-85
2021/11/30 12:26:41;;;;;;;2.55;1.65;;;5.80;99.90;;;;;;4991208;28;20206;-86
2021/11/30 12:29:29;;;;;;;1.05;0.88;;;5.90;99.90;;;;;;5007584;28;20182;-86
2021/11/30 12:31:57;;;;;;;3.17;1.20;;;5.90;99.90;;;;;;5009154;28;20218;-84
2021/11/30 12:34:32;;;;;;;1.27;0.80;;;5.80;99.90;;;;;;5033253;28;20209;-84
2021/11/30 12:37:15;;;;;;;2.42;1.85;;;5.80;99.90;;;;;;5024804;28;20190;-82
2021/11/30 12:40:06;;;;;;;0.90;0.80;;;5.80;99.90;;;;;;4999173;28;20182;-83
2021/11/30 12:42:52;;;;;;;1.67;1.42;;;5.80;99.90;;;;;;5018687;28;20193;-85
2021/11/30 12:45:44;;;;;;;1.38;1.00;;;5.80;99.90;;;;;;5001575;28;20206;-84
2021/11/30 12:48:18;;;;;;;1.10;1.00;;;5.80;99.90;;;;;;4994273;28;20596;-83
2021/11/30 12:50:45;;;;;;;1.65;1.35;;;5.90;99.90;;;;;;5000215;28;20228;-85
2021/11/30 12:53:11;;;;;;;1.63;0.68;;;5.90;99.90;;;;;;4980562;28;20183;-83
2021/11/30 12:55:46;;;;;;;2.78;1.55;;;6.00;99.90;;;;;;5001472;28;20182;-82
2021/11/30 12:58:47;;;;;;;4.22;1.40;;;6.10;99.90;;;;;;4991945;28;20193;-81
2021/11/30 13:01:14;;;;;;;5.45;2.20;;;6.20;99.90;;;;;;4992259;28;20197;-82
2021/11/30 13:03:40;;;;;;;7.80;1.63;;;6.30;99.90;;;;;;5005803;28;20182;-84
2021/11/30 13:06:06;;;;;;;3.17;1.37;;;6.30;99.90;;;;;;4991791;28;20283;-82
2021/11/30 13:08:51;;;;;;;1.93;1.47;;;6.30;99.90;;;;;;4994595;28;21850;-85
2021/11/30 13:11:18;;;;;;;8.13;1.50;;;6.40;99.90;;;;;;5018912;28;20487;-85
2021/11/30 13:13:56;;;;;;;9.00;1.50;;;6.30;99.90;;;;;;5020167;28;20645;-86
2021/11/30 13:16:23;;;;;;;5.82;1.80;;;6.50;99.90;;;;;;5002317;28;20231;-86